sensor_id;sensor_type;location;lat;lon;timestamp;temperature;humidity
11188;DHT22;5650;52.700;7.306;2023-02-15T00:00:17;2.50;99.90
11188;DHT22;5650;52.700;7.306;2023-02-15T00:02:45;2.50;99.90
11188;DHT22;5650;52.700;7.306;2023-02-15T00:05:12;2.50;99.90
11188;DHT22;5650;52.700;7.306;2023-02-15T00:07:47;2.50;99.90
11188;DHT22;5650;52.700;7.306;2023-02-15T00:10:16;2.50;99.90
11188;DHT22;5650;52.700;7.306;2023-02-15T00:12:46;2.40;99.90
11188;DHT22;5650;52.700;7.306;2023-02-15T00:15:14;2.40;99.90
11188;DHT22;5650;52.700;7.306;2023-02-15T00:17:47;2.30;99.90
11188;DHT22;5650;52.700;7.306;2023-02-15T00:20:14;2.30;99.90
11188;DHT22;5650;52.700;7.306;2023-02-15T00:22:47;2.30;99.90
11188;DHT22;5650;52.700;7.306;2023-02-15T00:25:16;2.30;99.90
11188;DHT22;5650;52.700;7.306;2023-02-15T00:27:47;2.30;99.90
11188;DHT22;5650;52.700;7.306;2023-02-15T00:30:17;2.20;99.90
11188;DHT22;5650;52.700;7.306;2023-02-15T00:32:47;2.20;99.90
11188;DHT22;5650;52.700;7.306;2023-02-15T00:35:17;2.20;99.90
11188;DHT22;5650;52.700;7.306;2023-02-15T00:37:47;2.10;99.90
11188;DHT22;5650;52.700;7.306;2023-02-15T00:40:16;2.10;99.90
11188;DHT22;5650;52.700;7.306;2023-02-15T00:42:43;2.10;99.90
11188;DHT22;5650;52.700;7.306;2023-02-15T00:45:11;2.10;99.90
11188;DHT22;5650;52.700;7.306;2023-02-15T00:47:38;2.10;99.90
11188;DHT22;5650;52.700;7.306;2023-02-15T00:50:06;2.10;99.90
11188;DHT22;5650;52.700;7.306;2023-02-15T00:52:33;2.00;99.90
11188;DHT22;5650;52.700;7.306;2023-02-15T00:55:00;2.00;99.90
11188;DHT22;5650;52.700;7.306;2023-02-15T00:57:29;2.00;99.90
11188;DHT22;5650;52.700;7.306;2023-02-15T01:00:01;2.00;99.90
11188;DHT22;5650;52.700;7.306;2023-02-15T01:02:31;1.90;99.90
11188;DHT22;5650;52.700;7.306;2023-02-15T01:05:05;1.90;99.90
11188;DHT22;5650;52.700;7.306;2023-02-15T01:07:32;1.90;99.90
11188;DHT22;5650;52.700;7.306;2023-02-15T01:10:03;1.90;99.90
11188;DHT22;5650;52.700;7.306;2023-02-15T01:12:31;1.90;99.90
11188;DHT22;5650;52.700;7.306;2023-02-15T01:15:01;1.90;99.90
11188;DHT22;5650;52.700;7.306;2023-02-15T01:17:29;1.90;99.90
11188;DHT22;5650;52.700;7.306;2023-02-15T01:19:57;1.90;99.90
11188;DHT22;5650;52.700;7.306;2023-02-15T01:22:25;1.90;99.90
11188;DHT22;5650;52.700;7.306;2023-02-15T01:24:52;1.90;99.90
11188;DHT22;5650;52.700;7.306;2023-02-15T01:27:20;1.90;99.90
11188;DHT22;5650;52.700;7.306;2023-02-15T01:29:49;1.80;99.90
11188;DHT22;5650;52.700;7.306;2023-02-15T01:32:16;1.80;99.90
11188;DHT22;5650;52.700;7.306;2023-02-15T01:34:49;1.80;99.90
11188;DHT22;5650;52.700;7.306;2023-02-15T01:37:16;1.80;99.90
11188;DHT22;5650;52.700;7.306;2023-02-15T01:39:45;1.80;99.90
11188;DHT22;5650;52.700;7.306;2023-02-15T01:42:24;1.80;99.90
11188;DHT22;5650;52.700;7.306;2023-02-15T01:44:54;1.70;99.90
11188;DHT22;5650;52.700;7.306;2023-02-15T01:47:36;1.70;99.90
11188;DHT22;5650;52.700;7.306;2023-02-15T01:50:10;1.70;99.90
11188;DHT22;5650;52.700;7.306;2023-02-15T01:52:42;1.70;99.90
11188;DHT22;5650;52.700;7.306;2023-02-15T01:55:25;1.70;99.90
11188;DHT22;5650;52.700;7.306;2023-02-15T01:57:55;1.70;99.90
11188;DHT22;5650;52.700;7.306;2023-02-15T02:00:26;1.70;99.90
11188;DHT22;5650;52.700;7.306;2023-02-15T02:02:55;1.70;99.90
11188;DHT22;5650;52.700;7.306;2023-02-15T02:05:24;1.70;99.90
11188;DHT22;5650;52.700;7.306;2023-02-15T02:07:53;1.70;99.90
11188;DHT22;5650;52.700;7.306;2023-02-15T02:10:28;1.70;99.90
11188;DHT22;5650;52.700;7.306;2023-02-15T02:12:59;1.60;99.90
11188;DHT22;5650;52.700;7.306;2023-02-15T02:15:39;1.60;99.90
11188;DHT22;5650;52.700;7.306;2023-02-15T02:18:27;1.60;99.90
11188;DHT22;5650;52.700;7.306;2023-02-15T02:21:25;1.60;99.90
11188;DHT22;5650;52.700;7.306;2023-02-15T02:27:29;1.60;99.90
11188;DHT22;5650;52.700;7.306;2023-02-15T02:30:20;1.60;99.90
11188;DHT22;5650;52.700;7.306;2023-02-15T02:36:00;1.40;99.90
11188;DHT22;5650;52.700;7.306;2023-02-15T02:38:37;1.40;99.90
11188;DHT22;5650;52.700;7.306;2023-02-15T02:41:16;1.40;99.90
11188;DHT22;5650;52.700;7.306;2023-02-15T02:43:50;1.40;99.90
11188;DHT22;5650;52.700;7.306;2023-02-15T02:46:22;1.40;99.90
11188;DHT22;5650;52.700;7.306;2023-02-15T02:48:52;1.40;99.90
11188;DHT22;5650;52.700;7.306;2023-02-15T02:51:22;1.40;99.90
11188;DHT22;5650;52.700;7.306;2023-02-15T02:53:52;1.30;99.90
11188;DHT22;5650;52.700;7.306;2023-02-15T02:56:25;1.30;99.90
11188;DHT22;5650;52.700;7.306;2023-02-15T02:59:00;1.30;99.90
11188;DHT22;5650;52.700;7.306;2023-02-15T03:01:32;1.30;99.90
11188;DHT22;5650;52.700;7.306;2023-02-15T03:04:06;1.30;99.90
11188;DHT22;5650;52.700;7.306;2023-02-15T03:06:39;1.30;99.90
11188;DHT22;5650;52.700;7.306;2023-02-15T03:09:11;1.30;99.90
11188;DHT22;5650;52.700;7.306;2023-02-15T03:11:44;1.20;99.90
11188;DHT22;5650;52.700;7.306;2023-02-15T03:14:15;1.20;99.90
11188;DHT22;5650;52.700;7.306;2023-02-15T03:16:47;1.20;99.90
11188;DHT22;5650;52.700;7.306;2023-02-15T03:19:18;1.20;99.90
11188;DHT22;5650;52.700;7.306;2023-02-15T03:21:50;1.20;99.90
11188;DHT22;5650;52.700;7.306;2023-02-15T03:24:26;1.20;99.90
11188;DHT22;5650;52.700;7.306;2023-02-15T03:26:59;1.20;99.90
11188;DHT22;5650;52.700;7.306;2023-02-15T03:29:30;1.20;99.90
11188;DHT22;5650;52.700;7.306;2023-02-15T03:32:03;1.20;99.90
11188;DHT22;5650;52.700;7.306;2023-02-15T03:34:34;1.20;99.90
11188;DHT22;5650;52.700;7.306;2023-02-15T03:37:09;1.20;99.90
11188;DHT22;5650;52.700;7.306;2023-02-15T03:39:41;1.20;99.90
11188;DHT22;5650;52.700;7.306;2023-02-15T03:42:18;1.10;99.90
11188;DHT22;5650;52.700;7.306;2023-02-15T03:44:59;1.10;99.90
11188;DHT22;5650;52.700;7.306;2023-02-15T03:47:31;1.10;99.90
11188;DHT22;5650;52.700;7.306;2023-02-15T03:50:07;1.10;99.90
11188;DHT22;5650;52.700;7.306;2023-02-15T03:52:56;1.10;99.90
11188;DHT22;5650;52.700;7.306;2023-02-15T03:55:25;1.10;99.90
11188;DHT22;5650;52.700;7.306;2023-02-15T03:57:52;1.10;99.90
11188;DHT22;5650;52.700;7.306;2023-02-15T04:00:43;1.10;99.90
11188;DHT22;5650;52.700;7.306;2023-02-15T04:03:33;1.10;99.90
11188;DHT22;5650;52.700;7.306;2023-02-15T04:06:05;1.10;99.90
11188;DHT22;5650;52.700;7.306;2023-02-15T04:08:33;1.10;99.90
11188;DHT22;5650;52.700;7.306;2023-02-15T04:11:13;1.10;99.90
11188;DHT22;5650;52.700;7.306;2023-02-15T04:13:41;1.10;99.90
11188;DHT22;5650;52.700;7.306;2023-02-15T04:16:09;1.00;99.90
11188;DHT22;5650;52.700;7.306;2023-02-15T04:18:36;1.00;99.90
11188;DHT22;5650;52.700;7.306;2023-02-15T04:21:30;1.00;99.90
11188;DHT22;5650;52.700;7.306;2023-02-15T04:24:15;1.00;99.90
11188;DHT22;5650;52.700;7.306;2023-02-15T04:27:04;1.00;99.90
11188;DHT22;5650;52.700;7.306;2023-02-15T04:29:32;1.00;99.90
11188;DHT22;5650;52.700;7.306;2023-02-15T04:32:00;1.00;99.90
11188;DHT22;5650;52.700;7.306;2023-02-15T04:34:27;1.00;99.90
11188;DHT22;5650;52.700;7.306;2023-02-15T04:36:56;1.00;99.90
11188;DHT22;5650;52.700;7.306;2023-02-15T04:39:23;1.00;99.90
11188;DHT22;5650;52.700;7.306;2023-02-15T04:41:51;1.00;99.90
11188;DHT22;5650;52.700;7.306;2023-02-15T04:44:21;1.00;99.90
11188;DHT22;5650;52.700;7.306;2023-02-15T04:46:48;1.00;99.90
11188;DHT22;5650;52.700;7.306;2023-02-15T04:49:16;1.00;99.90
11188;DHT22;5650;52.700;7.306;2023-02-15T04:51:43;1.00;99.90
11188;DHT22;5650;52.700;7.306;2023-02-15T04:54:12;1.00;99.90
11188;DHT22;5650;52.700;7.306;2023-02-15T04:56:42;1.00;99.90
11188;DHT22;5650;52.700;7.306;2023-02-15T04:59:13;0.90;99.90
11188;DHT22;5650;52.700;7.306;2023-02-15T05:01:40;0.90;99.90
11188;DHT22;5650;52.700;7.306;2023-02-15T05:04:08;0.90;99.90
11188;DHT22;5650;52.700;7.306;2023-02-15T05:06:38;0.90;99.90
11188;DHT22;5650;52.700;7.306;2023-02-15T05:09:05;0.90;99.90
11188;DHT22;5650;52.700;7.306;2023-02-15T05:11:34;0.80;99.90
11188;DHT22;5650;52.700;7.306;2023-02-15T05:14:04;0.80;99.90
11188;DHT22;5650;52.700;7.306;2023-02-15T05:16:35;0.80;99.90
11188;DHT22;5650;52.700;7.306;2023-02-15T05:19:05;0.80;99.90
11188;DHT22;5650;52.700;7.306;2023-02-15T05:21:33;0.80;99.90
11188;DHT22;5650;52.700;7.306;2023-02-15T05:24:01;0.80;99.90
11188;DHT22;5650;52.700;7.306;2023-02-15T05:26:50;0.80;99.90
11188;DHT22;5650;52.700;7.306;2023-02-15T05:29:34;0.80;99.90
11188;DHT22;5650;52.700;7.306;2023-02-15T05:32:04;0.80;99.90
11188;DHT22;5650;52.700;7.306;2023-02-15T05:34:31;0.80;99.90
11188;DHT22;5650;52.700;7.306;2023-02-15T05:37:01;0.80;99.90
11188;DHT22;5650;52.700;7.306;2023-02-15T05:39:29;0.80;99.90
11188;DHT22;5650;52.700;7.306;2023-02-15T05:42:00;0.70;99.90
11188;DHT22;5650;52.700;7.306;2023-02-15T05:44:27;0.70;99.90
11188;DHT22;5650;52.700;7.306;2023-02-15T05:46:55;0.70;99.90
11188;DHT22;5650;52.700;7.306;2023-02-15T05:49:22;0.70;99.90
11188;DHT22;5650;52.700;7.306;2023-02-15T05:51:49;0.70;99.90
11188;DHT22;5650;52.700;7.306;2023-02-15T05:54:16;0.70;99.90
11188;DHT22;5650;52.700;7.306;2023-02-15T05:56:50;0.70;99.90
11188;DHT22;5650;52.700;7.306;2023-02-15T05:59:19;0.70;99.90
11188;DHT22;5650;52.700;7.306;2023-02-15T06:01:46;0.60;99.90
11188;DHT22;5650;52.700;7.306;2023-02-15T06:04:13;0.60;99.90
11188;DHT22;5650;52.700;7.306;2023-02-15T06:06:41;0.60;99.90
11188;DHT22;5650;52.700;7.306;2023-02-15T06:09:09;0.60;99.90
11188;DHT22;5650;52.700;7.306;2023-02-15T06:11:36;0.60;99.90
11188;DHT22;5650;52.700;7.306;2023-02-15T06:14:03;0.60;99.90
11188;DHT22;5650;52.700;7.306;2023-02-15T06:16:32;0.60;99.90
11188;DHT22;5650;52.700;7.306;2023-02-15T06:18:59;0.60;99.90
11188;DHT22;5650;52.700;7.306;2023-02-15T06:21:30;0.60;99.90
11188;DHT22;5650;52.700;7.306;2023-02-15T06:23:58;0.60;99.90
11188;DHT22;5650;52.700;7.306;2023-02-15T06:26:25;0.60;99.90
11188;DHT22;5650;52.700;7.306;2023-02-15T06:28:55;0.60;99.90
11188;DHT22;5650;52.700;7.306;2023-02-15T06:31:22;0.60;99.90
11188;DHT22;5650;52.700;7.306;2023-02-15T06:33:51;0.60;99.90
11188;DHT22;5650;52.700;7.306;2023-02-15T06:36:18;0.60;99.90
11188;DHT22;5650;52.700;7.306;2023-02-15T06:38:45;0.60;99.90
11188;DHT22;5650;52.700;7.306;2023-02-15T06:41:12;0.60;99.90
11188;DHT22;5650;52.700;7.306;2023-02-15T06:43:40;0.60;99.90
11188;DHT22;5650;52.700;7.306;2023-02-15T06:46:07;0.60;99.90
11188;DHT22;5650;52.700;7.306;2023-02-15T06:48:34;0.60;99.90
11188;DHT22;5650;52.700;7.306;2023-02-15T06:51:03;0.60;99.90
11188;DHT22;5650;52.700;7.306;2023-02-15T06:53:30;0.60;99.90
11188;DHT22;5650;52.700;7.306;2023-02-15T06:56:00;0.70;99.90
11188;DHT22;5650;52.700;7.306;2023-02-15T06:58:32;0.70;99.90
11188;DHT22;5650;52.700;7.306;2023-02-15T07:00:59;0.70;99.90
11188;DHT22;5650;52.700;7.306;2023-02-15T07:03:26;0.70;99.90
11188;DHT22;5650;52.700;7.306;2023-02-15T07:05:54;0.70;99.90
11188;DHT22;5650;52.700;7.306;2023-02-15T07:08:24;0.70;99.90
11188;DHT22;5650;52.700;7.306;2023-02-15T07:10:51;0.80;99.90
11188;DHT22;5650;52.700;7.306;2023-02-15T07:13:19;0.80;99.90
11188;DHT22;5650;52.700;7.306;2023-02-15T07:15:46;0.80;99.90
11188;DHT22;5650;52.700;7.306;2023-02-15T07:18:17;0.90;99.90
11188;DHT22;5650;52.700;7.306;2023-02-15T07:20:44;0.90;99.90
11188;DHT22;5650;52.700;7.306;2023-02-15T07:23:14;1.00;99.90
11188;DHT22;5650;52.700;7.306;2023-02-15T07:25:46;1.00;99.90
11188;DHT22;5650;52.700;7.306;2023-02-15T07:28:13;1.10;99.90
11188;DHT22;5650;52.700;7.306;2023-02-15T07:30:41;1.20;99.90
11188;DHT22;5650;52.700;7.306;2023-02-15T07:33:11;1.40;99.90
11188;DHT22;5650;52.700;7.306;2023-02-15T07:35:54;1.50;99.90
11188;DHT22;5650;52.700;7.306;2023-02-15T07:38:23;1.70;99.90
11188;DHT22;5650;52.700;7.306;2023-02-15T07:40:57;1.90;99.90
11188;DHT22;5650;52.700;7.306;2023-02-15T07:43:28;2.20;99.90
11188;DHT22;5650;52.700;7.306;2023-02-15T07:46:02;2.40;99.90
11188;DHT22;5650;52.700;7.306;2023-02-15T07:48:38;2.70;99.90
11188;DHT22;5650;52.700;7.306;2023-02-15T07:51:08;2.90;99.90
11188;DHT22;5650;52.700;7.306;2023-02-15T07:53:36;3.20;99.90
11188;DHT22;5650;52.700;7.306;2023-02-15T07:56:07;3.50;99.90
11188;DHT22;5650;52.700;7.306;2023-02-15T07:58:36;3.80;99.90
11188;DHT22;5650;52.700;7.306;2023-02-15T08:01:19;4.00;99.90
11188;DHT22;5650;52.700;7.306;2023-02-15T08:03:46;4.30;99.90
11188;DHT22;5650;52.700;7.306;2023-02-15T08:06:13;4.50;99.90
11188;DHT22;5650;52.700;7.306;2023-02-15T08:08:41;4.70;99.90
11188;DHT22;5650;52.700;7.306;2023-02-15T08:11:19;4.80;99.90
11188;DHT22;5650;52.700;7.306;2023-02-15T08:13:58;5.00;99.90
11188;DHT22;5650;52.700;7.306;2023-02-15T08:16:31;5.10;99.90
11188;DHT22;5650;52.700;7.306;2023-02-15T08:19:01;5.30;99.90
11188;DHT22;5650;52.700;7.306;2023-02-15T08:21:29;5.60;99.90
11188;DHT22;5650;52.700;7.306;2023-02-15T08:23:57;5.80;99.90
11188;DHT22;5650;52.700;7.306;2023-02-15T08:26:27;6.00;99.90
11188;DHT22;5650;52.700;7.306;2023-02-15T08:28:55;6.10;99.90
11188;DHT22;5650;52.700;7.306;2023-02-15T08:31:23;5.90;99.90
11188;DHT22;5650;52.700;7.306;2023-02-15T08:33:52;5.60;99.90
11188;DHT22;5650;52.700;7.306;2023-02-15T08:36:21;5.40;99.90
11188;DHT22;5650;52.700;7.306;2023-02-15T08:38:49;5.10;99.90
11188;DHT22;5650;52.700;7.306;2023-02-15T08:41:18;4.90;99.90
11188;DHT22;5650;52.700;7.306;2023-02-15T08:43:49;4.80;99.90
11188;DHT22;5650;52.700;7.306;2023-02-15T08:46:19;4.70;99.90
11188;DHT22;5650;52.700;7.306;2023-02-15T08:48:47;4.60;99.90
11188;DHT22;5650;52.700;7.306;2023-02-15T08:51:16;4.60;99.90
11188;DHT22;5650;52.700;7.306;2023-02-15T08:53:45;4.50;99.90
11188;DHT22;5650;52.700;7.306;2023-02-15T08:56:15;4.60;99.90
11188;DHT22;5650;52.700;7.306;2023-02-15T08:58:42;4.60;99.90
11188;DHT22;5650;52.700;7.306;2023-02-15T09:01:13;4.60;99.90
11188;DHT22;5650;52.700;7.306;2023-02-15T09:03:44;4.70;99.90
11188;DHT22;5650;52.700;7.306;2023-02-15T09:06:12;4.70;99.90
11188;DHT22;5650;52.700;7.306;2023-02-15T09:08:39;4.70;99.90
11188;DHT22;5650;52.700;7.306;2023-02-15T09:11:08;4.80;99.90
11188;DHT22;5650;52.700;7.306;2023-02-15T09:13:35;4.80;99.90
11188;DHT22;5650;52.700;7.306;2023-02-15T09:16:03;4.90;99.90
11188;DHT22;5650;52.700;7.306;2023-02-15T09:18:34;4.90;99.90
11188;DHT22;5650;52.700;7.306;2023-02-15T09:21:10;5.00;99.90
11188;DHT22;5650;52.700;7.306;2023-02-15T09:23:39;5.10;99.90
11188;DHT22;5650;52.700;7.306;2023-02-15T09:26:08;5.10;99.90
11188;DHT22;5650;52.700;7.306;2023-02-15T09:28:36;5.10;99.90
11188;DHT22;5650;52.700;7.306;2023-02-15T09:31:08;5.20;99.90
11188;DHT22;5650;52.700;7.306;2023-02-15T09:33:38;5.30;99.90
11188;DHT22;5650;52.700;7.306;2023-02-15T09:36:14;5.30;99.90
11188;DHT22;5650;52.700;7.306;2023-02-15T09:38:41;5.40;99.90
11188;DHT22;5650;52.700;7.306;2023-02-15T09:41:23;5.40;99.90
11188;DHT22;5650;52.700;7.306;2023-02-15T09:44:03;5.50;99.90
11188;DHT22;5650;52.700;7.306;2023-02-15T09:46:53;5.60;99.90
11188;DHT22;5650;52.700;7.306;2023-02-15T09:49:32;5.70;99.90
11188;DHT22;5650;52.700;7.306;2023-02-15T09:52:17;5.80;99.90
11188;DHT22;5650;52.700;7.306;2023-02-15T09:55:02;5.90;99.90
11188;DHT22;5650;52.700;7.306;2023-02-15T09:57:37;5.90;99.90
11188;DHT22;5650;52.700;7.306;2023-02-15T10:00:12;6.10;99.90
11188;DHT22;5650;52.700;7.306;2023-02-15T10:02:56;6.10;99.90
11188;DHT22;5650;52.700;7.306;2023-02-15T10:05:37;6.20;99.90
11188;DHT22;5650;52.700;7.306;2023-02-15T10:08:28;6.30;99.90
11188;DHT22;5650;52.700;7.306;2023-02-15T10:11:05;6.40;99.90
11188;DHT22;5650;52.700;7.306;2023-02-15T10:13:57;6.50;99.90
11188;DHT22;5650;52.700;7.306;2023-02-15T10:16:35;6.60;99.90
11188;DHT22;5650;52.700;7.306;2023-02-15T10:19:08;6.80;99.90
11188;DHT22;5650;52.700;7.306;2023-02-15T10:21:49;6.90;99.90
11188;DHT22;5650;52.700;7.306;2023-02-15T10:27:21;7.10;99.90
11188;DHT22;5650;52.700;7.306;2023-02-15T10:29:55;7.20;99.90
11188;DHT22;5650;52.700;7.306;2023-02-15T10:32:27;7.30;99.90
11188;DHT22;5650;52.700;7.306;2023-02-15T10:35:01;7.30;99.90
11188;DHT22;5650;52.700;7.306;2023-02-15T10:40:37;7.50;99.90
11188;DHT22;5650;52.700;7.306;2023-02-15T10:43:31;7.60;99.90
11188;DHT22;5650;52.700;7.306;2023-02-15T10:46:09;7.70;99.90
11188;DHT22;5650;52.700;7.306;2023-02-15T10:49:05;7.80;99.90
11188;DHT22;5650;52.700;7.306;2023-02-15T10:51:43;7.90;99.90
11188;DHT22;5650;52.700;7.306;2023-02-15T10:54:21;8.00;99.90
11188;DHT22;5650;52.700;7.306;2023-02-15T10:56:58;8.00;99.90
11188;DHT22;5650;52.700;7.306;2023-02-15T10:59:40;8.10;99.90
11188;DHT22;5650;52.700;7.306;2023-02-15T11:02:14;8.10;99.90
11188;DHT22;5650;52.700;7.306;2023-02-15T11:05:01;8.20;99.90
11188;DHT22;5650;52.700;7.306;2023-02-15T11:07:35;8.30;99.90
11188;DHT22;5650;52.700;7.306;2023-02-15T11:10:19;8.40;99.90
11188;DHT22;5650;52.700;7.306;2023-02-15T11:12:49;8.50;99.90
11188;DHT22;5650;52.700;7.306;2023-02-15T11:15:21;8.50;99.90
11188;DHT22;5650;52.700;7.306;2023-02-15T11:17:56;8.60;99.90
11188;DHT22;5650;52.700;7.306;2023-02-15T11:20:29;8.70;99.90
11188;DHT22;5650;52.700;7.306;2023-02-15T11:22:58;8.70;99.90
11188;DHT22;5650;52.700;7.306;2023-02-15T11:25:30;8.80;99.90
11188;DHT22;5650;52.700;7.306;2023-02-15T11:27:59;8.80;99.90
11188;DHT22;5650;52.700;7.306;2023-02-15T11:30:40;8.90;99.90
11188;DHT22;5650;52.700;7.306;2023-02-15T11:33:15;8.90;99.90
11188;DHT22;5650;52.700;7.306;2023-02-15T11:35:50;9.00;99.90
11188;DHT22;5650;52.700;7.306;2023-02-15T11:38:22;9.00;99.90
11188;DHT22;5650;52.700;7.306;2023-02-15T11:40:54;9.10;99.90
11188;DHT22;5650;52.700;7.306;2023-02-15T11:43:28;9.10;99.90
11188;DHT22;5650;52.700;7.306;2023-02-15T11:45:57;9.20;99.90
11188;DHT22;5650;52.700;7.306;2023-02-15T11:48:24;9.20;99.90
11188;DHT22;5650;52.700;7.306;2023-02-15T11:50:51;9.30;99.90
11188;DHT22;5650;52.700;7.306;2023-02-15T11:53:20;9.30;99.90
11188;DHT22;5650;52.700;7.306;2023-02-15T11:55:50;9.40;99.90
11188;DHT22;5650;52.700;7.306;2023-02-15T11:58:28;9.40;99.90
11188;DHT22;5650;52.700;7.306;2023-02-15T12:01:01;9.50;99.90
11188;DHT22;5650;52.700;7.306;2023-02-15T12:03:42;9.50;99.90
11188;DHT22;5650;52.700;7.306;2023-02-15T12:06:16;9.60;99.90
11188;DHT22;5650;52.700;7.306;2023-02-15T12:09:01;9.60;99.90
11188;DHT22;5650;52.700;7.306;2023-02-15T12:11:34;9.60;99.90
11188;DHT22;5650;52.700;7.306;2023-02-15T12:14:05;9.70;99.90
11188;DHT22;5650;52.700;7.306;2023-02-15T12:16:39;9.70;99.90
11188;DHT22;5650;52.700;7.306;2023-02-15T12:19:26;9.80;99.90
11188;DHT22;5650;52.700;7.306;2023-02-15T12:21:54;9.80;99.90
11188;DHT22;5650;52.700;7.306;2023-02-15T12:24:26;9.80;99.90
11188;DHT22;5650;52.700;7.306;2023-02-15T12:26:59;9.90;99.90
11188;DHT22;5650;52.700;7.306;2023-02-15T12:29:31;10.00;99.90
11188;DHT22;5650;52.700;7.306;2023-02-15T12:32:02;10.10;99.90
11188;DHT22;5650;52.700;7.306;2023-02-15T12:34:32;10.20;99.90
11188;DHT22;5650;52.700;7.306;2023-02-15T12:37:09;10.20;99.90
11188;DHT22;5650;52.700;7.306;2023-02-15T12:39:37;10.30;99.90
11188;DHT22;5650;52.700;7.306;2023-02-15T12:42:13;10.30;99.90
11188;DHT22;5650;52.700;7.306;2023-02-15T12:44:58;10.40;99.90
11188;DHT22;5650;52.700;7.306;2023-02-15T12:47:26;10.50;99.90
11188;DHT22;5650;52.700;7.306;2023-02-15T12:50:11;10.50;99.90
11188;DHT22;5650;52.700;7.306;2023-02-15T12:52:45;10.50;99.90
11188;DHT22;5650;52.700;7.306;2023-02-15T12:55:20;10.50;99.90
11188;DHT22;5650;52.700;7.306;2023-02-15T12:57:47;10.50;99.90
11188;DHT22;5650;52.700;7.306;2023-02-15T13:00:29;10.50;99.90
11188;DHT22;5650;52.700;7.306;2023-02-15T13:02:59;10.60;99.90
11188;DHT22;5650;52.700;7.306;2023-02-15T13:05:32;10.70;99.90
11188;DHT22;5650;52.700;7.306;2023-02-15T13:08:02;10.70;99.90
11188;DHT22;5650;52.700;7.306;2023-02-15T13:10:31;10.80;99.90
11188;DHT22;5650;52.700;7.306;2023-02-15T13:13:00;10.90;99.90
11188;DHT22;5650;52.700;7.306;2023-02-15T13:15:36;10.90;99.90
11188;DHT22;5650;52.700;7.306;2023-02-15T13:18:07;10.90;99.90
11188;DHT22;5650;52.700;7.306;2023-02-15T13:20:37;11.00;99.90
11188;DHT22;5650;52.700;7.306;2023-02-15T13:23:11;11.00;99.90
11188;DHT22;5650;52.700;7.306;2023-02-15T13:25:44;11.00;99.90
11188;DHT22;5650;52.700;7.306;2023-02-15T13:28:17;11.10;99.90
11188;DHT22;5650;52.700;7.306;2023-02-15T13:30:48;11.00;99.90
11188;DHT22;5650;52.700;7.306;2023-02-15T13:33:19;11.10;99.90
11188;DHT22;5650;52.700;7.306;2023-02-15T13:35:50;11.00;99.90
11188;DHT22;5650;52.700;7.306;2023-02-15T13:38:43;11.10;99.90
11188;DHT22;5650;52.700;7.306;2023-02-15T13:41:14;11.10;99.90
11188;DHT22;5650;52.700;7.306;2023-02-15T13:43:50;11.00;99.90
11188;DHT22;5650;52.700;7.306;2023-02-15T13:46:34;11.00;99.90
11188;DHT22;5650;52.700;7.306;2023-02-15T13:49:12;11.00;99.90
11188;DHT22;5650;52.700;7.306;2023-02-15T13:51:47;11.10;99.90
11188;DHT22;5650;52.700;7.306;2023-02-15T13:54:46;11.10;99.90
11188;DHT22;5650;52.700;7.306;2023-02-15T13:57:30;11.10;99.90
11188;DHT22;5650;52.700;7.306;2023-02-15T14:00:14;11.10;99.90
11188;DHT22;5650;52.700;7.306;2023-02-15T14:03:18;11.10;99.90
11188;DHT22;5650;52.700;7.306;2023-02-15T14:08:45;11.10;99.90
11188;DHT22;5650;52.700;7.306;2023-02-15T14:11:19;11.20;99.90
11188;DHT22;5650;52.700;7.306;2023-02-15T14:14:15;11.20;99.90
11188;DHT22;5650;52.700;7.306;2023-02-15T14:16:53;11.20;99.90
11188;DHT22;5650;52.700;7.306;2023-02-15T14:19:27;11.30;99.90
11188;DHT22;5650;52.700;7.306;2023-02-15T14:21:59;11.40;99.90
11188;DHT22;5650;52.700;7.306;2023-02-15T14:24:33;11.50;99.90
11188;DHT22;5650;52.700;7.306;2023-02-15T14:27:13;11.60;99.90
11188;DHT22;5650;52.700;7.306;2023-02-15T14:29:51;11.70;99.90
11188;DHT22;5650;52.700;7.306;2023-02-15T14:32:24;11.80;99.90
11188;DHT22;5650;52.700;7.306;2023-02-15T14:34:56;11.80;99.90
11188;DHT22;5650;52.700;7.306;2023-02-15T14:37:31;11.90;99.90
11188;DHT22;5650;52.700;7.306;2023-02-15T14:40:03;11.80;99.90
11188;DHT22;5650;52.700;7.306;2023-02-15T14:42:54;11.80;99.90
11188;DHT22;5650;52.700;7.306;2023-02-15T14:45:27;11.70;99.90
11188;DHT22;5650;52.700;7.306;2023-02-15T14:48:02;11.70;99.90
11188;DHT22;5650;52.700;7.306;2023-02-15T14:50:41;11.60;99.90
11188;DHT22;5650;52.700;7.306;2023-02-15T14:56:23;11.50;99.90
11188;DHT22;5650;52.700;7.306;2023-02-15T14:58:56;11.40;99.90
11188;DHT22;5650;52.700;7.306;2023-02-15T15:01:26;11.30;99.90
11188;DHT22;5650;52.700;7.306;2023-02-15T15:03:57;11.20;99.90
11188;DHT22;5650;52.700;7.306;2023-02-15T15:06:28;11.10;99.90
11188;DHT22;5650;52.700;7.306;2023-02-15T15:09:01;11.20;99.90
11188;DHT22;5650;52.700;7.306;2023-02-15T15:11:45;11.10;99.90
11188;DHT22;5650;52.700;7.306;2023-02-15T15:14:37;11.00;99.90
11188;DHT22;5650;52.700;7.306;2023-02-15T15:17:06;11.00;99.90
11188;DHT22;5650;52.700;7.306;2023-02-15T15:20:05;11.00;99.90
11188;DHT22;5650;52.700;7.306;2023-02-15T15:22:41;11.00;99.90
11188;DHT22;5650;52.700;7.306;2023-02-15T15:27:56;10.90;99.90
11188;DHT22;5650;52.700;7.306;2023-02-15T15:40:04;10.70;99.90
11188;DHT22;5650;52.700;7.306;2023-02-15T15:42:51;10.70;99.90
11188;DHT22;5650;52.700;7.306;2023-02-15T15:48:31;10.60;99.90
11188;DHT22;5650;52.700;7.306;2023-02-15T15:51:09;10.60;99.90
11188;DHT22;5650;52.700;7.306;2023-02-15T15:53:40;10.60;99.90
11188;DHT22;5650;52.700;7.306;2023-02-15T15:56:13;10.50;99.90
11188;DHT22;5650;52.700;7.306;2023-02-15T15:58:44;10.50;99.90
11188;DHT22;5650;52.700;7.306;2023-02-15T16:01:12;10.50;99.90
11188;DHT22;5650;52.700;7.306;2023-02-15T16:03:49;10.40;99.90
11188;DHT22;5650;52.700;7.306;2023-02-15T16:06:28;10.40;99.90
11188;DHT22;5650;52.700;7.306;2023-02-15T16:08:55;10.30;99.90
11188;DHT22;5650;52.700;7.306;2023-02-15T16:11:26;10.30;99.90
11188;DHT22;5650;52.700;7.306;2023-02-15T16:13:56;10.20;99.90
11188;DHT22;5650;52.700;7.306;2023-02-15T16:16:25;10.10;99.90
11188;DHT22;5650;52.700;7.306;2023-02-15T16:18:54;10.00;99.90
11188;DHT22;5650;52.700;7.306;2023-02-15T16:21:28;10.00;99.90
11188;DHT22;5650;52.700;7.306;2023-02-15T16:24:15;9.90;99.90
11188;DHT22;5650;52.700;7.306;2023-02-15T16:29:46;9.70;99.90
11188;DHT22;5650;52.700;7.306;2023-02-15T16:32:18;9.60;99.90
11188;DHT22;5650;52.700;7.306;2023-02-15T16:34:53;9.50;99.90
11188;DHT22;5650;52.700;7.306;2023-02-15T16:37:22;9.50;99.90
11188;DHT22;5650;52.700;7.306;2023-02-15T16:39:52;9.40;99.90
11188;DHT22;5650;52.700;7.306;2023-02-15T16:42:25;9.40;99.90
11188;DHT22;5650;52.700;7.306;2023-02-15T16:44:55;9.30;99.90
11188;DHT22;5650;52.700;7.306;2023-02-15T16:47:25;9.30;99.90
11188;DHT22;5650;52.700;7.306;2023-02-15T16:49:58;9.20;99.90
11188;DHT22;5650;52.700;7.306;2023-02-15T16:52:28;9.20;99.90
11188;DHT22;5650;52.700;7.306;2023-02-15T16:54:58;9.10;99.90
11188;DHT22;5650;52.700;7.306;2023-02-15T16:57:30;9.10;99.90
11188;DHT22;5650;52.700;7.306;2023-02-15T17:00:02;9.00;99.90
11188;DHT22;5650;52.700;7.306;2023-02-15T17:02:33;8.90;99.90
11188;DHT22;5650;52.700;7.306;2023-02-15T17:05:10;8.80;99.90
11188;DHT22;5650;52.700;7.306;2023-02-15T17:07:42;8.70;99.90
11188;DHT22;5650;52.700;7.306;2023-02-15T17:10:33;8.70;99.90